Hatsu Envoy — VSQL9 — position and weather

sailwx.info

Track history (hours):
 
Tides and Currents Weather Stations Pressure Air Temp Water Temp Dewpoint Dewpoint Depression Visibility Wind Speed Wind Dir Waves Ship Positions

Hatsu Envoy

Last reported at 2017-May-20 04:21 UTC. Time now 2017-May-24 19:45 UTC.
Position N 38°10' W 127°03'.

Type: Cargo ship. MMSI: 235414000.

Date/timePositionNaut miles runAvg speedWind from/ knotsBaromVisibWave heightAir tempDewpointWater temp
2017-May-20 04:21N 38°10' W 127°03'4514.5
2017-May-20 01:13N 38°10' W 126°05'1314.3
2017-May-20 00:18N 38°10' W 125°48'414.2
2017-May-20 00:00N 38°10' W 125°43'714.2
2017-May-19 23:30N 38°10' W 125°34'714.1
2017-May-19 23:00N 38°10' W 125°25'1314.0
2017-May-19 22:03N 38°10' W 125°08'114.5
2017-May-19 22:01N 38°10' W 125°07'914.2
2017-May-19 21:24N 38°10' W 124°56'614.2
2017-May-19 21:00N 38°10' W 124°49'714.1
2017-May-19 20:30N 38°10' W 124°40'1014.0
2017-May-19 19:46N 38°10' W 124°27'514.1
2017-May-19 19:24N 38°10' W 124°21'614.3
2017-May-19 19:00N 38°10' W 124°13'714.2
2017-May-19 18:30N 38°10' W 124°04'714.2
2017-May-19 18:00N 38°10' W 123°55'714.5
2017-May-19 17:30N 38°10' W 123°46'714.4
2017-May-19 17:00N 38°10' W 123°37'714.0
2017-May-19 16:30N 38°10' W 123°28'612.1
2017-May-19 16:00N 38°09' W 123°20'510.0
2017-May-19 15:31N 38°05' W 123°16'510.0
2017-May-19 15:01N 38°01' W 123°12'10 9.8
2017-May-19 14:00N 37°56' W 123°02'5 9.7
2017-May-19 13:31N 37°53' W 122°57'5 9.7
2017-May-19 13:00N 37°51' W 122°51'5 9.8
2017-May-19 12:31N 37°48' W 122°46'5 9.5
2017-May-19 12:00N 37°46' W 122°41'511.0
2017-May-19 11:31N 37°47' W 122°34'612.6
2017-May-19 11:00N 37°50' W 122°27'510.1
2017-May-19 10:31N 37°48' W 122°21'1 1.7
2017-May-19 10:00N 37°49' W 122°20'0 0.0
2017-May-19 09:30N 37°49' W 122°20'0 0.0
2017-May-19 09:00N 37°49' W 122°20'0 0.0
2017-May-19 08:30N 37°49' W 122°20'0 0.0
2017-May-19 08:00N 37°49' W 122°20'0 0.0
2017-May-19 07:30N 37°49' W 122°20'0 0.0
2017-May-19 07:00N 37°48' W 122°20'0 0.0
2017-May-19 06:30N 37°48' W 122°20'0 0.0
2017-May-19 06:00N 37°48' W 122°20'0 0.0
2017-May-19 05:30N 37°49' W 122°20'0 0.0
2017-May-19 05:00N 37°49' W 122°20'0 0.0
2017-May-19 04:30N 37°49' W 122°20'0 0.0
2017-May-19 04:00N 37°48' W 122°20'0 0.0
2017-May-19 03:30N 37°48' W 122°20'0 0.0
2017-May-19 03:00N 37°49' W 122°20'0 0.0
2017-May-19 02:30N 37°49' W 122°20'0 0.0
2017-May-19 02:00N 37°48' W 122°20'0 0.0
2017-May-19 01:30N 37°49' W 122°20'0 0.0
2017-May-19 01:00N 37°48' W 122°20'0 0.0
2017-May-19 00:30N 37°48' W 122°20'0 0.1
2017-May-19 00:00N 37°48' W 122°20'0 0.1
2017-May-18 23:30N 37°49' W 122°20'0 0.0
2017-May-18 23:00N 37°49' W 122°20'0 0.0
2017-May-18 22:30N 37°49' W 122°20'0 0.0
2017-May-18 22:00N 37°48' W 122°20'0 0.0
2017-May-18 21:30N 37°48' W 122°20'0 0.0
2017-May-18 21:00N 37°49' W 122°20'0 0.0
2017-May-18 20:29N 37°49' W 122°20'0 0.0
2017-May-18 20:00N 37°49' W 122°20'0 0.0
2017-May-18 19:30N 37°48' W 122°20'0 0.0
2017-May-18 19:00N 37°48' W 122°20'0 0.0
2017-May-18 18:30N 37°48' W 122°20'0 0.0
2017-May-18 18:00N 37°49' W 122°20'0 0.0
2017-May-18 17:29N 37°49' W 122°20'0 0.0
2017-May-18 17:00N 37°49' W 122°20'0 0.0
2017-May-18 16:30N 37°49' W 122°20'0 0.0
2017-May-18 16:00N 37°49' W 122°20'0 0.0
2017-May-18 15:30N 37°49' W 122°20'0 0.0
2017-May-18 15:00N 37°49' W 122°20'0 0.0
2017-May-18 14:30N 37°49' W 122°20'0 0.0
2017-May-18 13:30N 37°49' W 122°20'1 1.5
2017-May-18 13:00N 37°49' W 122°19'1 1.4
2017-May-18 12:30N 37°49' W 122°20'4 7.6
2017-May-18 12:00N 37°49' W 122°25'612.1
2017-May-18 11:31N 37°47' W 122°32'713.5
2017-May-18 11:00N 37°45' W 122°40'4 8.8
2017-May-18 10:30N 37°40' W 122°40'5 9.6
2017-May-18 10:00N 37°36' W 122°39'5 9.6
2017-May-18 09:30N 37°31' W 122°39'5 9.8
2017-May-18 09:00N 37°26' W 122°39'5 9.6
2017-May-18 08:30N 37°21' W 122°39'5 9.7
2017-May-18 08:00N 37°16' W 122°39'612.3
2017-May-18 07:30N 37°10' W 122°38'713.6
2017-May-18 07:00N 37°04' W 122°37'612.3
2017-May-18 06:30N 36°58' W 122°35'713.1
2017-May-18 05:59N 36°51' W 122°32'713.3
2017-May-18 05:26N 36°44' W 122°28'613.5
2017-May-18 05:00N 36°39' W 122°26'613.1
2017-May-18 04:30N 36°33' W 122°23'713.3
2017-May-18 04:00N 36°27' W 122°20'612.4
2017-May-18 03:30N 36°21' W 122°17'613.0
2017-May-18 03:00N 36°15' W 122°13'612.9
2017-May-18 02:30N 36°10' W 122°09'612.9
2017-May-18 02:00N 36°04' W 122°05'912.9
2017-May-18 01:17N 35°56' W 121°59'412.9
2017-May-18 01:00N 35°53' W 121°57'713.3
2017-May-18 00:30N 35°47' W 121°53'713.4
2017-May-18 00:00N 35°42' W 121°48'612.9
2017-May-17 23:30N 35°36' W 121°44'713.1
2017-May-17 22:59N 35°30' W 121°40'612.7
2017-May-17 22:30N 35°25' W 121°37'713.0
2017-May-17 22:00N 35°19' W 121°33'612.8
2017-May-17 21:30N 35°13' W 121°30'613.1
2017-May-17 21:00N 35°08' W 121°26'612.8
2017-May-17 20:30N 35°02' W 121°22'612.9
2017-May-17 20:00N 34°56' W 121°19'613.0
2017-May-17 19:30N 34°50' W 121°15'713.1
2017-May-17 19:00N 34°44' W 121°12'612.9
2017-May-17 18:30N 34°39' W 121°08'713.2
2017-May-17 18:00N 34°33' W 121°04'713.0
2017-May-17 17:30N 34°27' W 121°01'713.0
2017-May-17 17:00N 34°21' W 120°57'612.8
2017-May-17 16:30N 34°16' W 120°53'612.6
2017-May-17 16:00N 34°10' W 120°50'612.0
2017-May-17 15:30N 34°05' W 120°47'612.2
2017-May-17 15:00N 33°59' W 120°43'1212.3
2017-May-17 14:00N 33°48' W 120°36'612.4
2017-May-17 13:30N 33°43' W 120°32'611.5
2017-May-17 13:00N 33°39' W 120°28'611.4
2017-May-17 12:30N 33°39' W 120°21'611.2
2017-May-17 11:59N 33°39' W 120°14'611.4
2017-May-17 11:30N 33°39' W 120°07'611.6
2017-May-17 11:00N 33°38' W 120°00'612.0
2017-May-17 10:29N 33°38' W 119°53'611.5
2017-May-17 09:59N 33°38' W 119°46'612.0
2017-May-17 09:30N 33°38' W 119°39'811.7
2017-May-17 08:50N 33°38' W 119°30'411.5
2017-May-17 08:30N 33°38' W 119°25'612.0
2017-May-17 08:00N 33°38' W 119°18'2 3.5
2017-May-17 07:30N 33°39' W 119°16'1 2.9
2017-May-17 07:00N 33°39' W 119°14'510.9
2017-May-17 06:30N 33°38' W 119°07'612.1
2017-May-17 06:00N 33°38' W 119°00'611.7
2017-May-17 05:30N 33°38' W 118°53'811.9
2017-May-17 04:50N 33°38' W 118°44'411.4
2017-May-17 04:30N 33°39' W 118°39'612.0
2017-May-17 04:00N 33°39' W 118°32'611.8
2017-May-17 03:30N 33°39' W 118°25'611.1
2017-May-17 03:00N 33°39' W 118°18'4 8.6
2017-May-17 02:31N 33°42' W 118°15'3 0.2
2017-May-16 07:55N 33°45' W 118°16'0 0.1
2017-May-16 07:19N 33°45' W 118°16'0 0.0
2017-May-16 04:37N 33°45' W 118°16'0 0.0
2017-May-16 02:43N 33°45' W 118°16'0 0.0
2017-May-16 02:25N 33°45' W 118°16'0 0.0
2017-May-16 01:49N 33°45' W 118°16'0 0.0
2017-May-15 23:31N 33°45' W 118°16'0 0.0
2017-May-15 21:13N 33°45' W 118°16'0 0.0
2017-May-15 17:31N 33°45' W 118°16'0 0.0
2017-May-15 17:19N 33°45' W 118°16'0 0.0
2017-May-15 06:25N 33°45' W 118°16'0 0.0
2017-May-15 05:59N 33°45' W 118°16'0 0.0
2017-May-15 05:30N 33°45' W 118°16'0 0.0
2017-May-15 04:59N 33°45' W 118°16'0 0.0
2017-May-15 03:46N 33°45' W 118°16'0 0.0
2017-May-15 03:20N 33°45' W 118°16'0 0.0
2017-May-15 01:12N 33°45' W 118°16'0 0.0
2017-May-14 23:39N 33°45' W 118°16'0 0.1
2017-May-14 23:24N 33°45' W 118°16'0 0.0
2017-May-14 22:59N 33°45' W 118°16'0 0.0
2017-May-14 22:27N 33°45' W 118°16'0 0.0
2017-May-14 21:55N 33°45' W 118°16'0 0.0
2017-May-14 21:29N 33°45' W 118°16'0 0.0
2017-May-14 21:00N 33°45' W 118°16'0 0.0
2017-May-14 20:27N 33°45' W 118°16'0 0.0
2017-May-14 18:29N 33°45' W 118°16'0 0.0
2017-May-14 16:09N 33°45' W 118°16'0 0.0
2017-May-14 15:16N 33°45' W 118°16'0 0.0
2017-May-14 14:59N 33°45' W 118°16'0 0.0
2017-May-14 14:27N 33°45' W 118°16'0 0.0
2017-May-14 13:07N 33°45' W 118°16'0 0.0
2017-May-14 12:48N 33°45' W 118°16'0 0.4
2017-May-14 12:30N 33°45' W 118°16'1 1.6
2017-May-14 11:58N 33°44' W 118°17'3 5.6
2017-May-14 11:30N 33°42' W 118°14'4 7.4
2017-May-14 11:00N 33°39' W 118°14'510.0
2017-May-14 10:30N 33°36' W 118°19'510.7
2017-May-14 10:00N 33°37' W 118°25'510.6
2017-May-14 09:30N 33°37' W 118°32'510.7
2017-May-14 09:00N 33°37' W 118°38'510.8
2017-May-14 08:31N 33°37' W 118°45'610.8
2017-May-14 07:59N 33°37' W 118°51'510.8
2017-May-14 07:30N 33°37' W 118°58'510.9
2017-May-14 07:01N 33°37' W 119°04'611.3
2017-May-14 06:30N 33°38' W 119°11'611.5
2017-May-14 05:59N 33°37' W 119°18'511.4
2017-May-14 05:30N 33°37' W 119°25'611.3
2017-May-14 04:58N 33°37' W 119°32'511.2
2017-May-14 04:30N 33°37' W 119°38'611.7
2017-May-14 04:00N 33°37' W 119°45'612.0
2017-May-14 03:30N 33°37' W 119°53'511.3
2017-May-14 03:01N 33°37' W 119°59'611.2
2017-May-14 02:30N 33°37' W 120°06'611.6
2017-May-14 02:00N 33°37' W 120°13'611.3
2017-May-14 01:27N 33°37' W 120°20'611.5
2017-May-14 00:58N 33°37' W 120°27'511.5
2017-May-14 00:30N 33°37' W 120°34'611.4
2017-May-13 23:59N 33°37' W 120°41'611.7
2017-May-13 23:30N 33°37' W 120°47'611.3
2017-May-13 22:59N 33°37' W 120°54'611.5
2017-May-13 22:30N 33°37' W 121°01'612.0
2017-May-13 22:00N 33°37' W 121°08'817.0
2017-May-13 21:30N 33°37' W 121°18'918.5
2017-May-13 21:00N 33°37' W 121°29'918.8
2017-May-13 20:30N 33°36' W 121°41'  
Track history (hours):
 
Tides and Currents Weather Stations Pressure Air Temp Water Temp Dewpoint Dewpoint Depression Visibility Wind Speed Wind Dir Waves Ship Positions

Hatsu Envoy

Last reported at 2017-May-20 04:21 UTC. Time now 2017-May-24 19:45 UTC.
Position N 38°10' W 127°03'.

Type: Cargo ship. MMSI: 235414000.

Date/timePositionNaut miles runAvg speedWind from/ knotsBaromVisibWave heightAir tempDewpointWater temp
2017-May-20 04:21N 38°10' W 127°03'4514.5
2017-May-20 01:13N 38°10' W 126°05'1314.3
2017-May-20 00:18N 38°10' W 125°48'414.2
2017-May-20 00:00N 38°10' W 125°43'714.2
2017-May-19 23:30N 38°10' W 125°34'714.1
2017-May-19 23:00N 38°10' W 125°25'1314.0
2017-May-19 22:03N 38°10' W 125°08'114.5
2017-May-19 22:01N 38°10' W 125°07'914.2
2017-May-19 21:24N 38°10' W 124°56'614.2
2017-May-19 21:00N 38°10' W 124°49'714.1
2017-May-19 20:30N 38°10' W 124°40'1014.0
2017-May-19 19:46N 38°10' W 124°27'514.1
2017-May-19 19:24N 38°10' W 124°21'614.3
2017-May-19 19:00N 38°10' W 124°13'714.2
2017-May-19 18:30N 38°10' W 124°04'714.2
2017-May-19 18:00N 38°10' W 123°55'714.5
2017-May-19 17:30N 38°10' W 123°46'714.4
2017-May-19 17:00N 38°10' W 123°37'714.0
2017-May-19 16:30N 38°10' W 123°28'612.1
2017-May-19 16:00N 38°09' W 123°20'510.0
2017-May-19 15:31N 38°05' W 123°16'510.0
2017-May-19 15:01N 38°01' W 123°12'10 9.8
2017-May-19 14:00N 37°56' W 123°02'5 9.7
2017-May-19 13:31N 37°53' W 122°57'5 9.7
2017-May-19 13:00N 37°51' W 122°51'5 9.8
2017-May-19 12:31N 37°48' W 122°46'5 9.5
2017-May-19 12:00N 37°46' W 122°41'511.0
2017-May-19 11:31N 37°47' W 122°34'612.6
2017-May-19 11:00N 37°50' W 122°27'510.1
2017-May-19 10:31N 37°48' W 122°21'1 1.7
2017-May-19 10:00N 37°49' W 122°20'0 0.0
2017-May-19 09:30N 37°49' W 122°20'0 0.0
2017-May-19 09:00N 37°49' W 122°20'0 0.0
2017-May-19 08:30N 37°49' W 122°20'0 0.0
2017-May-19 08:00N 37°49' W 122°20'0 0.0
2017-May-19 07:30N 37°49' W 122°20'0 0.0
2017-May-19 07:00N 37°48' W 122°20'0 0.0
2017-May-19 06:30N 37°48' W 122°20'0 0.0
2017-May-19 06:00N 37°48' W 122°20'0 0.0
2017-May-19 05:30N 37°49' W 122°20'0 0.0
2017-May-19 05:00N 37°49' W 122°20'0 0.0
2017-May-19 04:30N 37°49' W 122°20'0 0.0
2017-May-19 04:00N 37°48' W 122°20'0 0.0
2017-May-19 03:30N 37°48' W 122°20'0 0.0
2017-May-19 03:00N 37°49' W 122°20'0 0.0
2017-May-19 02:30N 37°49' W 122°20'0 0.0
2017-May-19 02:00N 37°48' W 122°20'0 0.0
2017-May-19 01:30N 37°49' W 122°20'0 0.0
2017-May-19 01:00N 37°48' W 122°20'0 0.0
2017-May-19 00:30N 37°48' W 122°20'0 0.1
2017-May-19 00:00N 37°48' W 122°20'0 0.1
2017-May-18 23:30N 37°49' W 122°20'0 0.0
2017-May-18 23:00N 37°49' W 122°20'0 0.0
2017-May-18 22:30N 37°49' W 122°20'0 0.0
2017-May-18 22:00N 37°48' W 122°20'0 0.0
2017-May-18 21:30N 37°48' W 122°20'0 0.0
2017-May-18 21:00N 37°49' W 122°20'0 0.0
2017-May-18 20:29N 37°49' W 122°20'0 0.0
2017-May-18 20:00N 37°49' W 122°20'0 0.0
2017-May-18 19:30N 37°48' W 122°20'0 0.0
2017-May-18 19:00N 37°48' W 122°20'0 0.0
2017-May-18 18:30N 37°48' W 122°20'0 0.0
2017-May-18 18:00N 37°49' W 122°20'0 0.0
2017-May-18 17:29N 37°49' W 122°20'0 0.0
2017-May-18 17:00N 37°49' W 122°20'0 0.0
2017-May-18 16:30N 37°49' W 122°20'0 0.0
2017-May-18 16:00N 37°49' W 122°20'0 0.0
2017-May-18 15:30N 37°49' W 122°20'0 0.0
2017-May-18 15:00N 37°49' W 122°20'0 0.0
2017-May-18 14:30N 37°49' W 122°20'0 0.0
2017-May-18 13:30N 37°49' W 122°20'1 1.5
2017-May-18 13:00N 37°49' W 122°19'1 1.4
2017-May-18 12:30N 37°49' W 122°20'4 7.6
2017-May-18 12:00N 37°49' W 122°25'612.1
2017-May-18 11:31N 37°47' W 122°32'713.5
2017-May-18 11:00N 37°45' W 122°40'4 8.8
2017-May-18 10:30N 37°40' W 122°40'5 9.6
2017-May-18 10:00N 37°36' W 122°39'5 9.6
2017-May-18 09:30N 37°31' W 122°39'5 9.8
2017-May-18 09:00N 37°26' W 122°39'5 9.6
2017-May-18 08:30N 37°21' W 122°39'5 9.7
2017-May-18 08:00N 37°16' W 122°39'612.3
2017-May-18 07:30N 37°10' W 122°38'713.6
2017-May-18 07:00N 37°04' W 122°37'612.3
2017-May-18 06:30N 36°58' W 122°35'713.1
2017-May-18 05:59N 36°51' W 122°32'713.3
2017-May-18 05:26N 36°44' W 122°28'613.5
2017-May-18 05:00N 36°39' W 122°26'613.1
2017-May-18 04:30N 36°33' W 122°23'713.3
2017-May-18 04:00N 36°27' W 122°20'612.4
2017-May-18 03:30N 36°21' W 122°17'613.0
2017-May-18 03:00N 36°15' W 122°13'612.9
2017-May-18 02:30N 36°10' W 122°09'612.9
2017-May-18 02:00N 36°04' W 122°05'912.9
2017-May-18 01:17N 35°56' W 121°59'412.9
2017-May-18 01:00N 35°53' W 121°57'713.3
2017-May-18 00:30N 35°47' W 121°53'713.4
2017-May-18 00:00N 35°42' W 121°48'612.9
2017-May-17 23:30N 35°36' W 121°44'713.1
2017-May-17 22:59N 35°30' W 121°40'612.7
2017-May-17 22:30N 35°25' W 121°37'713.0
2017-May-17 22:00N 35°19' W 121°33'612.8
2017-May-17 21:30N 35°13' W 121°30'613.1
2017-May-17 21:00N 35°08' W 121°26'612.8
2017-May-17 20:30N 35°02' W 121°22'612.9
2017-May-17 20:00N 34°56' W 121°19'613.0
2017-May-17 19:30N 34°50' W 121°15'713.1
2017-May-17 19:00N 34°44' W 121°12'612.9
2017-May-17 18:30N 34°39' W 121°08'713.2
2017-May-17 18:00N 34°33' W 121°04'713.0
2017-May-17 17:30N 34°27' W 121°01'713.0
2017-May-17 17:00N 34°21' W 120°57'612.8
2017-May-17 16:30N 34°16' W 120°53'612.6
2017-May-17 16:00N 34°10' W 120°50'612.0
2017-May-17 15:30N 34°05' W 120°47'612.2
2017-May-17 15:00N 33°59' W 120°43'1212.3
2017-May-17 14:00N 33°48' W 120°36'612.4
2017-May-17 13:30N 33°43' W 120°32'611.5
2017-May-17 13:00N 33°39' W 120°28'611.4
2017-May-17 12:30N 33°39' W 120°21'611.2
2017-May-17 11:59N 33°39' W 120°14'611.4
2017-May-17 11:30N 33°39' W 120°07'611.6
2017-May-17 11:00N 33°38' W 120°00'612.0
2017-May-17 10:29N 33°38' W 119°53'611.5
2017-May-17 09:59N 33°38' W 119°46'612.0
2017-May-17 09:30N 33°38' W 119°39'811.7
2017-May-17 08:50N 33°38' W 119°30'411.5
2017-May-17 08:30N 33°38' W 119°25'612.0
2017-May-17 08:00N 33°38' W 119°18'2 3.5
2017-May-17 07:30N 33°39' W 119°16'1 2.9
2017-May-17 07:00N 33°39' W 119°14'510.9
2017-May-17 06:30N 33°38' W 119°07'612.1
2017-May-17 06:00N 33°38' W 119°00'611.7
2017-May-17 05:30N 33°38' W 118°53'811.9
2017-May-17 04:50N 33°38' W 118°44'411.4
2017-May-17 04:30N 33°39' W 118°39'612.0
2017-May-17 04:00N 33°39' W 118°32'611.8
2017-May-17 03:30N 33°39' W 118°25'611.1
2017-May-17 03:00N 33°39' W 118°18'4 8.6
2017-May-17 02:31N 33°42' W 118°15'3 0.2
2017-May-16 07:55N 33°45' W 118°16'0 0.1
2017-May-16 07:19N 33°45' W 118°16'0 0.0
2017-May-16 04:37N 33°45' W 118°16'0 0.0
2017-May-16 02:43N 33°45' W 118°16'0 0.0
2017-May-16 02:25N 33°45' W 118°16'0 0.0
2017-May-16 01:49N 33°45' W 118°16'0 0.0
2017-May-15 23:31N 33°45' W 118°16'0 0.0
2017-May-15 21:13N 33°45' W 118°16'0 0.0
2017-May-15 17:31N 33°45' W 118°16'0 0.0
2017-May-15 17:19N 33°45' W 118°16'0 0.0
2017-May-15 06:25N 33°45' W 118°16'0 0.0
2017-May-15 05:59N 33°45' W 118°16'0 0.0
2017-May-15 05:30N 33°45' W 118°16'0 0.0
2017-May-15 04:59N 33°45' W 118°16'0 0.0
2017-May-15 03:46N 33°45' W 118°16'0 0.0
2017-May-15 03:20N 33°45' W 118°16'0 0.0
2017-May-15 01:12N 33°45' W 118°16'0 0.0
2017-May-14 23:39N 33°45' W 118°16'0 0.1
2017-May-14 23:24N 33°45' W 118°16'0 0.0
2017-May-14 22:59N 33°45' W 118°16'0 0.0
2017-May-14 22:27N 33°45' W 118°16'0 0.0
2017-May-14 21:55N 33°45' W 118°16'0 0.0
2017-May-14 21:29N 33°45' W 118°16'0 0.0
2017-May-14 21:00N 33°45' W 118°16'0 0.0
2017-May-14 20:27N 33°45' W 118°16'0 0.0
2017-May-14 18:29N 33°45' W 118°16'0 0.0
2017-May-14 16:09N 33°45' W 118°16'0 0.0
2017-May-14 15:16N 33°45' W 118°16'0 0.0
2017-May-14 14:59N 33°45' W 118°16'0 0.0
2017-May-14 14:27N 33°45' W 118°16'0 0.0
2017-May-14 13:07N 33°45' W 118°16'0 0.0
2017-May-14 12:48N 33°45' W 118°16'0 0.4
2017-May-14 12:30N 33°45' W 118°16'1 1.6
2017-May-14 11:58N 33°44' W 118°17'3 5.6
2017-May-14 11:30N 33°42' W 118°14'4 7.4
2017-May-14 11:00N 33°39' W 118°14'510.0
2017-May-14 10:30N 33°36' W 118°19'510.7
2017-May-14 10:00N 33°37' W 118°25'510.6
2017-May-14 09:30N 33°37' W 118°32'510.7
2017-May-14 09:00N 33°37' W 118°38'510.8
2017-May-14 08:31N 33°37' W 118°45'610.8
2017-May-14 07:59N 33°37' W 118°51'510.8
2017-May-14 07:30N 33°37' W 118°58'510.9
2017-May-14 07:01N 33°37' W 119°04'611.3
2017-May-14 06:30N 33°38' W 119°11'611.5
2017-May-14 05:59N 33°37' W 119°18'511.4
2017-May-14 05:30N 33°37' W 119°25'611.3
2017-May-14 04:58N 33°37' W 119°32'511.2
2017-May-14 04:30N 33°37' W 119°38'611.7
2017-May-14 04:00N 33°37' W 119°45'612.0
2017-May-14 03:30N 33°37' W 119°53'511.3
2017-May-14 03:01N 33°37' W 119°59'611.2
2017-May-14 02:30N 33°37' W 120°06'611.6
2017-May-14 02:00N 33°37' W 120°13'611.3
2017-May-14 01:27N 33°37' W 120°20'611.5
2017-May-14 00:58N 33°37' W 120°27'511.5
2017-May-14 00:30N 33°37' W 120°34'611.4
2017-May-13 23:59N 33°37' W 120°41'611.7
2017-May-13 23:30N 33°37' W 120°47'611.3
2017-May-13 22:59N 33°37' W 120°54'611.5
2017-May-13 22:30N 33°37' W 121°01'612.0
2017-May-13 22:00N 33°37' W 121°08'817.0
2017-May-13 21:30N 33°37' W 121°18'918.5
2017-May-13 21:00N 33°37' W 121°29'918.8
2017-May-13 20:30N 33°36' W 121°41'  

Dump ship's entire track history